sensor_id;sensor_type;location;lat;lon;timestamp;temperature;humidity
25718;DHT22;13574;52.040;5.692;2023-06-10T00:01:24;25.30;81.40
25718;DHT22;13574;52.040;5.692;2023-06-10T00:03:51;25.40;81.30
25718;DHT22;13574;52.040;5.692;2023-06-10T00:06:17;25.00;81.60
25718;DHT22;13574;52.040;5.692;2023-06-10T00:08:43;25.10;81.90
25718;DHT22;13574;52.040;5.692;2023-06-10T00:11:09;25.00;81.70
25718;DHT22;13574;52.040;5.692;2023-06-10T00:13:35;24.80;81.90
25718;DHT22;13574;52.040;5.692;2023-06-10T00:16:02;24.80;81.90
25718;DHT22;13574;52.040;5.692;2023-06-10T00:18:29;24.80;81.10
25718;DHT22;13574;52.040;5.692;2023-06-10T00:20:57;24.70;81.60
25718;DHT22;13574;52.040;5.692;2023-06-10T00:23:28;24.90;81.60
25718;DHT22;13574;52.040;5.692;2023-06-10T00:25:58;25.10;80.70
25718;DHT22;13574;52.040;5.692;2023-06-10T00:28:24;24.80;80.70
25718;DHT22;13574;52.040;5.692;2023-06-10T00:30:51;24.80;80.50
25718;DHT22;13574;52.040;5.692;2023-06-10T00:33:22;24.80;80.40
25718;DHT22;13574;52.040;5.692;2023-06-10T00:35:48;24.80;80.80
25718;DHT22;13574;52.040;5.692;2023-06-10T00:38:14;24.80;80.40
25718;DHT22;13574;52.040;5.692;2023-06-10T00:40:41;24.90;80.30
25718;DHT22;13574;52.040;5.692;2023-06-10T00:43:07;25.00;79.80
25718;DHT22;13574;52.040;5.692;2023-06-10T00:45:36;24.70;80.90
25718;DHT22;13574;52.040;5.692;2023-06-10T00:48:02;24.60;80.60
25718;DHT22;13574;52.040;5.692;2023-06-10T00:50:29;24.70;80.40
25718;DHT22;13574;52.040;5.692;2023-06-10T00:52:56;24.70;80.20
25718;DHT22;13574;52.040;5.692;2023-06-10T00:55:23;24.70;80.70
25718;DHT22;13574;52.040;5.692;2023-06-10T00:57:49;24.80;79.50
25718;DHT22;13574;52.040;5.692;2023-06-10T01:00:15;24.70;79.60
25718;DHT22;13574;52.040;5.692;2023-06-10T01:02:41;24.50;79.80
25718;DHT22;13574;52.040;5.692;2023-06-10T01:05:11;24.60;79.80
25718;DHT22;13574;52.040;5.692;2023-06-10T01:07:43;24.50;80.20
25718;DHT22;13574;52.040;5.692;2023-06-10T01:10:32;24.50;79.80
25718;DHT22;13574;52.040;5.692;2023-06-10T01:13:01;24.30;80.20
25718;DHT22;13574;52.040;5.692;2023-06-10T01:15:34;24.30;80.60
25718;DHT22;13574;52.040;5.692;2023-06-10T01:18:05;24.30;80.30
25718;DHT22;13574;52.040;5.692;2023-06-10T01:20:35;24.20;79.80
25718;DHT22;13574;52.040;5.692;2023-06-10T01:23:10;24.00;80.90
25718;DHT22;13574;52.040;5.692;2023-06-10T01:25:39;24.00;81.00
25718;DHT22;13574;52.040;5.692;2023-06-10T01:28:20;24.00;81.50
25718;DHT22;13574;52.040;5.692;2023-06-10T01:33:20;24.00;80.40
25718;DHT22;13574;52.040;5.692;2023-06-10T01:35:50;23.90;80.60
25718;DHT22;13574;52.040;5.692;2023-06-10T01:38:19;24.00;80.40
25718;DHT22;13574;52.040;5.692;2023-06-10T01:40:47;24.00;80.20
25718;DHT22;13574;52.040;5.692;2023-06-10T01:43:13;23.90;80.40
25718;DHT22;13574;52.040;5.692;2023-06-10T01:45:42;23.90;80.20
25718;DHT22;13574;52.040;5.692;2023-06-10T01:48:10;23.80;80.50
25718;DHT22;13574;52.040;5.692;2023-06-10T01:50:36;23.70;80.80
25718;DHT22;13574;52.040;5.692;2023-06-10T01:53:12;23.60;81.00
25718;DHT22;13574;52.040;5.692;2023-06-10T01:55:38;23.50;81.10
25718;DHT22;13574;52.040;5.692;2023-06-10T01:58:06;23.60;81.10
25718;DHT22;13574;52.040;5.692;2023-06-10T02:00:31;23.60;81.10
25718;DHT22;13574;52.040;5.692;2023-06-10T02:03:00;23.50;81.00
25718;DHT22;13574;52.040;5.692;2023-06-10T02:05:26;23.30;81.30
25718;DHT22;13574;52.040;5.692;2023-06-10T02:07:52;23.40;81.40
25718;DHT22;13574;52.040;5.692;2023-06-10T02:10:17;23.60;81.20
25718;DHT22;13574;52.040;5.692;2023-06-10T02:12:52;23.30;81.50
25718;DHT22;13574;52.040;5.692;2023-06-10T02:15:18;23.40;81.50
25718;DHT22;13574;52.040;5.692;2023-06-10T02:17:44;23.20;81.80
25718;DHT22;13574;52.040;5.692;2023-06-10T02:20:14;23.40;81.70
25718;DHT22;13574;52.040;5.692;2023-06-10T02:22:40;23.40;81.80
25718;DHT22;13574;52.040;5.692;2023-06-10T02:25:06;23.20;82.20
25718;DHT22;13574;52.040;5.692;2023-06-10T02:27:32;23.10;82.50
25718;DHT22;13574;52.040;5.692;2023-06-10T02:29:58;22.90;82.90
25718;DHT22;13574;52.040;5.692;2023-06-10T02:32:24;22.90;83.00
25718;DHT22;13574;52.040;5.692;2023-06-10T02:34:50;22.80;83.20
25718;DHT22;13574;52.040;5.692;2023-06-10T02:37:16;22.40;84.30
25718;DHT22;13574;52.040;5.692;2023-06-10T02:39:42;22.40;84.70
25718;DHT22;13574;52.040;5.692;2023-06-10T02:42:11;22.50;84.70
25718;DHT22;13574;52.040;5.692;2023-06-10T02:44:38;22.40;84.90
25718;DHT22;13574;52.040;5.692;2023-06-10T02:47:04;22.50;84.80
25718;DHT22;13574;52.040;5.692;2023-06-10T02:49:30;22.60;84.60
25718;DHT22;13574;52.040;5.692;2023-06-10T02:51:55;22.70;84.30
25718;DHT22;13574;52.040;5.692;2023-06-10T02:54:25;22.70;84.40
25718;DHT22;13574;52.040;5.692;2023-06-10T02:56:54;22.80;84.40
25718;DHT22;13574;52.040;5.692;2023-06-10T02:59:21;22.70;84.40
25718;DHT22;13574;52.040;5.692;2023-06-10T03:01:47;22.60;84.70
25718;DHT22;13574;52.040;5.692;2023-06-10T03:04:13;22.70;84.80
25718;DHT22;13574;52.040;5.692;2023-06-10T03:06:43;22.80;84.60
25718;DHT22;13574;52.040;5.692;2023-06-10T03:09:11;22.60;85.20
25718;DHT22;13574;52.040;5.692;2023-06-10T03:11:37;22.60;85.40
25718;DHT22;13574;52.040;5.692;2023-06-10T03:14:02;22.50;85.30
25718;DHT22;13574;52.040;5.692;2023-06-10T03:16:28;22.20;86.10
25718;DHT22;13574;52.040;5.692;2023-06-10T03:18:56;22.10;86.30
25718;DHT22;13574;52.040;5.692;2023-06-10T03:21:22;22.40;86.40
25718;DHT22;13574;52.040;5.692;2023-06-10T03:23:48;22.20;86.60
25718;DHT22;13574;52.040;5.692;2023-06-10T03:26:14;22.20;86.70
25718;DHT22;13574;52.040;5.692;2023-06-10T03:28:43;22.10;87.30
25718;DHT22;13574;52.040;5.692;2023-06-10T03:31:09;21.50;88.60
25718;DHT22;13574;52.040;5.692;2023-06-10T03:33:35;21.70;88.40
25718;DHT22;13574;52.040;5.692;2023-06-10T03:36:04;21.90;88.00
25718;DHT22;13574;52.040;5.692;2023-06-10T03:38:30;21.80;88.00
25718;DHT22;13574;52.040;5.692;2023-06-10T03:40:56;22.20;87.50
25718;DHT22;13574;52.040;5.692;2023-06-10T03:43:24;22.10;87.80
25718;DHT22;13574;52.040;5.692;2023-06-10T03:45:52;22.00;88.00
25718;DHT22;13574;52.040;5.692;2023-06-10T03:48:18;22.00;88.20
25718;DHT22;13574;52.040;5.692;2023-06-10T03:50:44;22.10;88.10
25718;DHT22;13574;52.040;5.692;2023-06-10T03:53:10;21.80;88.40
25718;DHT22;13574;52.040;5.692;2023-06-10T03:55:36;21.80;88.60
25718;DHT22;13574;52.040;5.692;2023-06-10T03:58:02;22.00;88.70
25718;DHT22;13574;52.040;5.692;2023-06-10T04:00:27;21.90;88.70
25718;DHT22;13574;52.040;5.692;2023-06-10T04:02:54;22.00;89.60
25718;DHT22;13574;52.040;5.692;2023-06-10T04:05:23;22.10;88.50
25718;DHT22;13574;52.040;5.692;2023-06-10T04:07:49;22.20;88.40
25718;DHT22;13574;52.040;5.692;2023-06-10T04:10:15;22.10;88.80
25718;DHT22;13574;52.040;5.692;2023-06-10T04:12:41;22.00;89.20
25718;DHT22;13574;52.040;5.692;2023-06-10T04:15:08;21.70;89.70
25718;DHT22;13574;52.040;5.692;2023-06-10T04:17:34;21.80;90.00
25718;DHT22;13574;52.040;5.692;2023-06-10T04:20:00;22.00;89.80
25718;DHT22;13574;52.040;5.692;2023-06-10T04:22:29;22.00;90.00
25718;DHT22;13574;52.040;5.692;2023-06-10T04:24:55;21.80;90.10
25718;DHT22;13574;52.040;5.692;2023-06-10T04:27:21;21.90;90.10
25718;DHT22;13574;52.040;5.692;2023-06-10T04:29:47;22.10;90.00
25718;DHT22;13574;52.040;5.692;2023-06-10T04:32:12;22.20;89.90
25718;DHT22;13574;52.040;5.692;2023-06-10T04:34:38;22.10;90.10
25718;DHT22;13574;52.040;5.692;2023-06-10T04:37:04;22.00;90.30
25718;DHT22;13574;52.040;5.692;2023-06-10T04:39:30;22.00;90.20
25718;DHT22;13574;52.040;5.692;2023-06-10T04:41:57;22.00;90.30
25718;DHT22;13574;52.040;5.692;2023-06-10T04:44:22;22.00;90.30
25718;DHT22;13574;52.040;5.692;2023-06-10T04:46:49;22.20;90.40
25718;DHT22;13574;52.040;5.692;2023-06-10T04:49:15;22.00;90.60
25718;DHT22;13574;52.040;5.692;2023-06-10T04:51:41;21.90;90.60
25718;DHT22;13574;52.040;5.692;2023-06-10T04:54:06;21.60;91.10
25718;DHT22;13574;52.040;5.692;2023-06-10T04:56:32;21.90;90.90
25718;DHT22;13574;52.040;5.692;2023-06-10T04:58:59;21.80;91.10
25718;DHT22;13574;52.040;5.692;2023-06-10T05:01:24;21.80;91.00
25718;DHT22;13574;52.040;5.692;2023-06-10T05:03:50;22.20;90.90
25718;DHT22;13574;52.040;5.692;2023-06-10T05:06:16;22.20;90.70
25718;DHT22;13574;52.040;5.692;2023-06-10T05:08:42;22.40;90.60
25718;DHT22;13574;52.040;5.692;2023-06-10T05:11:38;22.30;90.80
25718;DHT22;13574;52.040;5.692;2023-06-10T05:17:17;22.10;91.10
25718;DHT22;13574;52.040;5.692;2023-06-10T05:20:22;22.20;91.00
25718;DHT22;13574;52.040;5.692;2023-06-10T05:22:57;22.30;90.90
25718;DHT22;13574;52.040;5.692;2023-06-10T05:29:17;22.70;90.80
25718;DHT22;13574;52.040;5.692;2023-06-10T05:31:48;22.70;90.60
25718;DHT22;13574;52.040;5.692;2023-06-10T05:38:32;22.40;90.70
25718;DHT22;13574;52.040;5.692;2023-06-10T05:41:21;22.10;91.40
25718;DHT22;13574;52.040;5.692;2023-06-10T05:43:58;22.30;91.30
25718;DHT22;13574;52.040;5.692;2023-06-10T05:46:32;22.50;90.70
25718;DHT22;13574;52.040;5.692;2023-06-10T05:49:00;22.60;90.70
25718;DHT22;13574;52.040;5.692;2023-06-10T05:51:26;22.50;90.70
25718;DHT22;13574;52.040;5.692;2023-06-10T05:53:57;23.00;90.50
25718;DHT22;13574;52.040;5.692;2023-06-10T05:59:01;22.90;90.70
25718;DHT22;13574;52.040;5.692;2023-06-10T06:01:44;22.80;90.40
25718;DHT22;13574;52.040;5.692;2023-06-10T06:04:23;23.00;90.30
25718;DHT22;13574;52.040;5.692;2023-06-10T06:07:09;23.40;90.00
25718;DHT22;13574;52.040;5.692;2023-06-10T06:09:44;23.60;89.30
25718;DHT22;13574;52.040;5.692;2023-06-10T06:18:33;25.80;84.10
25718;DHT22;13574;52.040;5.692;2023-06-10T06:21:13;26.10;83.10
25718;DHT22;13574;52.040;5.692;2023-06-10T06:24:26;26.20;82.80
25718;DHT22;13574;52.040;5.692;2023-06-10T06:27:01;26.20;82.60
25718;DHT22;13574;52.040;5.692;2023-06-10T06:29:36;25.90;82.90
25718;DHT22;13574;52.040;5.692;2023-06-10T06:35:53;26.00;82.60
25718;DHT22;13574;52.040;5.692;2023-06-10T06:39:02;25.90;82.70
25718;DHT22;13574;52.040;5.692;2023-06-10T06:45:08;26.50;81.30
25718;DHT22;13574;52.040;5.692;2023-06-10T06:47:49;26.60;80.90
25718;DHT22;13574;52.040;5.692;2023-06-10T06:50:31;27.00;80.20
25718;DHT22;13574;52.040;5.692;2023-06-10T06:53:32;27.50;78.90
25718;DHT22;13574;52.040;5.692;2023-06-10T06:56:19;28.90;76.90
25718;DHT22;13574;52.040;5.692;2023-06-10T06:58:56;31.00;73.10
25718;DHT22;13574;52.040;5.692;2023-06-10T07:01:33;32.20;71.20
25718;DHT22;13574;52.040;5.692;2023-06-10T07:04:33;33.00;68.80
25718;DHT22;13574;52.040;5.692;2023-06-10T07:07:22;32.80;67.80
25718;DHT22;13574;52.040;5.692;2023-06-10T07:09:48;32.40;68.90
25718;DHT22;13574;52.040;5.692;2023-06-10T07:12:14;33.80;67.20
25718;DHT22;13574;52.040;5.692;2023-06-10T07:14:40;35.00;65.70
25718;DHT22;13574;52.040;5.692;2023-06-10T07:17:08;36.20;63.80
25718;DHT22;13574;52.040;5.692;2023-06-10T07:19:40;36.90;63.40
25718;DHT22;13574;52.040;5.692;2023-06-10T07:22:06;37.30;60.60
25718;DHT22;13574;52.040;5.692;2023-06-10T07:24:40;37.50;60.20
25718;DHT22;13574;52.040;5.692;2023-06-10T07:27:06;37.80;59.80
25718;DHT22;13574;52.040;5.692;2023-06-10T07:29:40;37.90;59.50
25718;DHT22;13574;52.040;5.692;2023-06-10T07:32:08;38.40;59.30
25718;DHT22;13574;52.040;5.692;2023-06-10T07:34:36;38.90;58.70
25718;DHT22;13574;52.040;5.692;2023-06-10T07:37:08;38.70;58.60
25718;DHT22;13574;52.040;5.692;2023-06-10T07:39:36;40.70;58.10
25718;DHT22;13574;52.040;5.692;2023-06-10T07:46:21;41.70;56.10
25718;DHT22;13574;52.040;5.692;2023-06-10T07:49:18;43.30;54.90
25718;DHT22;13574;52.040;5.692;2023-06-10T07:58:54;42.90;53.70
25718;DHT22;13574;52.040;5.692;2023-06-10T08:01:23;43.40;53.60
25718;DHT22;13574;52.040;5.692;2023-06-10T08:03:50;43.30;52.90
25718;DHT22;13574;52.040;5.692;2023-06-10T08:06:18;43.20;52.70
25718;DHT22;13574;52.040;5.692;2023-06-10T08:08:44;41.90;53.80
25718;DHT22;13574;52.040;5.692;2023-06-10T08:11:11;41.00;54.90
25718;DHT22;13574;52.040;5.692;2023-06-10T08:13:37;41.00;55.50
25718;DHT22;13574;52.040;5.692;2023-06-10T08:16:03;42.10;54.10
25718;DHT22;13574;52.040;5.692;2023-06-10T08:18:29;42.90;54.90
25718;DHT22;13574;52.040;5.692;2023-06-10T08:20:59;43.40;52.90
25718;DHT22;13574;52.040;5.692;2023-06-10T08:23:25;44.00;52.60
25718;DHT22;13574;52.040;5.692;2023-06-10T08:25:54;44.10;52.30
25718;DHT22;13574;52.040;5.692;2023-06-10T08:28:20;44.70;51.90
25718;DHT22;13574;52.040;5.692;2023-06-10T08:30:45;44.00;51.60
25718;DHT22;13574;52.040;5.692;2023-06-10T08:33:11;44.00;51.90
25718;DHT22;13574;52.040;5.692;2023-06-10T08:35:37;44.20;51.90
25718;DHT22;13574;52.040;5.692;2023-06-10T08:38:02;44.00;52.30
25718;DHT22;13574;52.040;5.692;2023-06-10T08:40:32;42.80;52.50
25718;DHT22;13574;52.040;5.692;2023-06-10T08:43:04;43.90;53.10
25718;DHT22;13574;52.040;5.692;2023-06-10T08:45:31;44.90;52.20
25718;DHT22;13574;52.040;5.692;2023-06-10T08:47:58;45.70;50.90
25718;DHT22;13574;52.040;5.692;2023-06-10T08:50:28;45.00;51.00
25718;DHT22;13574;52.040;5.692;2023-06-10T08:52:59;45.70;50.30
25718;DHT22;13574;52.040;5.692;2023-06-10T08:55:32;44.60;51.00
25718;DHT22;13574;52.040;5.692;2023-06-10T08:58:01;44.90;51.50
25718;DHT22;13574;52.040;5.692;2023-06-10T09:00:28;45.40;50.90
25718;DHT22;13574;52.040;5.692;2023-06-10T09:02:55;45.10;50.70
25718;DHT22;13574;52.040;5.692;2023-06-10T09:05:21;44.90;50.90
25718;DHT22;13574;52.040;5.692;2023-06-10T09:07:48;44.80;50.60
25718;DHT22;13574;52.040;5.692;2023-06-10T09:10:19;44.30;51.20
25718;DHT22;13574;52.040;5.692;2023-06-10T09:12:45;43.70;51.60
25718;DHT22;13574;52.040;5.692;2023-06-10T09:15:10;43.10;52.40
25718;DHT22;13574;52.040;5.692;2023-06-10T09:17:38;42.60;52.90
25718;DHT22;13574;52.040;5.692;2023-06-10T09:20:09;43.20;52.40
25718;DHT22;13574;52.040;5.692;2023-06-10T09:22:34;44.40;51.70
25718;DHT22;13574;52.040;5.692;2023-06-10T09:25:08;43.90;51.40
25718;DHT22;13574;52.040;5.692;2023-06-10T09:27:51;43.70;50.90
25718;DHT22;13574;52.040;5.692;2023-06-10T09:30:30;44.70;51.00
25718;DHT22;13574;52.040;5.692;2023-06-10T09:33:00;44.40;50.70
25718;DHT22;13574;52.040;5.692;2023-06-10T09:35:28;43.80;50.60
25718;DHT22;13574;52.040;5.692;2023-06-10T09:37:56;43.70;51.30
25718;DHT22;13574;52.040;5.692;2023-06-10T09:40:22;44.60;50.80
25718;DHT22;13574;52.040;5.692;2023-06-10T09:42:56;45.60;49.10
25718;DHT22;13574;52.040;5.692;2023-06-10T09:45:23;46.00;49.00
25718;DHT22;13574;52.040;5.692;2023-06-10T09:47:53;46.60;49.10
25718;DHT22;13574;52.040;5.692;2023-06-10T09:50:19;47.40;48.90
25718;DHT22;13574;52.040;5.692;2023-06-10T09:52:47;47.30;47.70
25718;DHT22;13574;52.040;5.692;2023-06-10T09:55:13;47.50;48.30
25718;DHT22;13574;52.040;5.692;2023-06-10T09:57:39;47.40;47.80
25718;DHT22;13574;52.040;5.692;2023-06-10T10:00:08;47.30;48.60
25718;DHT22;13574;52.040;5.692;2023-06-10T10:02:49;45.60;47.70
25718;DHT22;13574;52.040;5.692;2023-06-10T10:05:16;46.10;48.40
25718;DHT22;13574;52.040;5.692;2023-06-10T10:07:43;47.10;47.70
25718;DHT22;13574;52.040;5.692;2023-06-10T10:10:10;47.80;47.10
25718;DHT22;13574;52.040;5.692;2023-06-10T10:12:38;48.60;46.40
25718;DHT22;13574;52.040;5.692;2023-06-10T10:15:07;46.40;47.10
25718;DHT22;13574;52.040;5.692;2023-06-10T10:17:37;46.70;47.90
25718;DHT22;13574;52.040;5.692;2023-06-10T10:20:08;45.70;47.60
25718;DHT22;13574;52.040;5.692;2023-06-10T10:22:38;46.00;48.20
25718;DHT22;13574;52.040;5.692;2023-06-10T10:25:16;45.50;47.70
25718;DHT22;13574;52.040;5.692;2023-06-10T10:27:54;44.60;46.70
25718;DHT22;13574;52.040;5.692;2023-06-10T10:30:22;44.80;47.30
25718;DHT22;13574;52.040;5.692;2023-06-10T10:33:03;44.50;47.30
25718;DHT22;13574;52.040;5.692;2023-06-10T10:35:30;44.30;48.00
25718;DHT22;13574;52.040;5.692;2023-06-10T10:37:58;45.10;47.00
25718;DHT22;13574;52.040;5.692;2023-06-10T10:40:25;45.20;47.30
25718;DHT22;13574;52.040;5.692;2023-06-10T10:42:56;45.20;47.80
25718;DHT22;13574;52.040;5.692;2023-06-10T10:45:22;45.40;47.80
25718;DHT22;13574;52.040;5.692;2023-06-10T10:47:52;45.00;47.80
25718;DHT22;13574;52.040;5.692;2023-06-10T10:50:20;44.10;47.80
25718;DHT22;13574;52.040;5.692;2023-06-10T10:52:53;43.60;48.00
25718;DHT22;13574;52.040;5.692;2023-06-10T10:55:20;43.10;48.60
25718;DHT22;13574;52.040;5.692;2023-06-10T10:58:02;42.60;49.10
25718;DHT22;13574;52.040;5.692;2023-06-10T11:00:30;42.10;49.60
25718;DHT22;13574;52.040;5.692;2023-06-10T11:03:05;40.80;49.30
25718;DHT22;13574;52.040;5.692;2023-06-10T11:05:43;40.70;50.10
25718;DHT22;13574;52.040;5.692;2023-06-10T11:08:45;40.90;50.90
25718;DHT22;13574;52.040;5.692;2023-06-10T11:11:17;40.20;51.60
25718;DHT22;13574;52.040;5.692;2023-06-10T11:16:40;39.30;50.60
25718;DHT22;13574;52.040;5.692;2023-06-10T11:19:07;38.50;51.90
25718;DHT22;13574;52.040;5.692;2023-06-10T11:24:21;37.50;53.80
25718;DHT22;13574;52.040;5.692;2023-06-10T11:26:48;37.10;53.20
25718;DHT22;13574;52.040;5.692;2023-06-10T11:29:17;37.50;53.20
25718;DHT22;13574;52.040;5.692;2023-06-10T11:31:45;37.30;53.10
25718;DHT22;13574;52.040;5.692;2023-06-10T11:34:11;37.10;53.90
25718;DHT22;13574;52.040;5.692;2023-06-10T11:36:41;37.20;53.00
25718;DHT22;13574;52.040;5.692;2023-06-10T11:39:11;36.90;52.70
25718;DHT22;13574;52.040;5.692;2023-06-10T11:41:45;36.40;53.00
25718;DHT22;13574;52.040;5.692;2023-06-10T11:44:25;36.10;54.00
25718;DHT22;13574;52.040;5.692;2023-06-10T11:47:14;35.80;53.80
25718;DHT22;13574;52.040;5.692;2023-06-10T12:00:18;34.10;56.10
25718;DHT22;13574;52.040;5.692;2023-06-10T12:02:44;34.30;55.80
25718;DHT22;13574;52.040;5.692;2023-06-10T12:05:11;34.00;55.70
25718;DHT22;13574;52.040;5.692;2023-06-10T12:07:47;33.90;56.60
25718;DHT22;13574;52.040;5.692;2023-06-10T12:10:15;33.70;56.20
25718;DHT22;13574;52.040;5.692;2023-06-10T12:12:48;33.60;56.90
25718;DHT22;13574;52.040;5.692;2023-06-10T12:15:26;33.30;57.00
25718;DHT22;13574;52.040;5.692;2023-06-10T12:17:52;33.50;57.40
25718;DHT22;13574;52.040;5.692;2023-06-10T12:20:26;33.70;56.80
25718;DHT22;13574;52.040;5.692;2023-06-10T12:22:55;33.70;56.30
25718;DHT22;13574;52.040;5.692;2023-06-10T12:25:28;33.50;57.20
25718;DHT22;13574;52.040;5.692;2023-06-10T12:27:55;33.40;57.00
25718;DHT22;13574;52.040;5.692;2023-06-10T12:30:32;33.00;57.30
25718;DHT22;13574;52.040;5.692;2023-06-10T12:33:03;33.10;57.80
25718;DHT22;13574;52.040;5.692;2023-06-10T12:39:16;33.30;58.80
25718;DHT22;13574;52.040;5.692;2023-06-10T12:42:08;33.70;57.40
25718;DHT22;13574;52.040;5.692;2023-06-10T12:48:17;33.30;58.40
25718;DHT22;13574;52.040;5.692;2023-06-10T12:50:58;33.10;57.80
25718;DHT22;13574;52.040;5.692;2023-06-10T12:53:26;32.80;57.40
25718;DHT22;13574;52.040;5.692;2023-06-10T12:55:57;33.10;57.90
25718;DHT22;13574;52.040;5.692;2023-06-10T12:58:26;33.00;58.20
25718;DHT22;13574;52.040;5.692;2023-06-10T13:00:57;33.00;57.80
25718;DHT22;13574;52.040;5.692;2023-06-10T13:03:24;33.30;57.70
25718;DHT22;13574;52.040;5.692;2023-06-10T13:05:57;33.50;57.90
25718;DHT22;13574;52.040;5.692;2023-06-10T13:08:48;33.60;57.60
25718;DHT22;13574;52.040;5.692;2023-06-10T13:11:23;33.70;57.80
25718;DHT22;13574;52.040;5.692;2023-06-10T13:13:58;33.50;58.70
25718;DHT22;13574;52.040;5.692;2023-06-10T13:29:46;33.10;58.80
25718;DHT22;13574;52.040;5.692;2023-06-10T13:35:42;33.50;57.70
25718;DHT22;13574;52.040;5.692;2023-06-10T13:38:08;33.00;58.10
25718;DHT22;13574;52.040;5.692;2023-06-10T13:40:56;32.70;58.80
25718;DHT22;13574;52.040;5.692;2023-06-10T13:52:19;32.80;58.70
25718;DHT22;13574;52.040;5.692;2023-06-10T13:55:26;31.90;59.50
25718;DHT22;13574;52.040;5.692;2023-06-10T13:58:19;32.20;59.70
25718;DHT22;13574;52.040;5.692;2023-06-10T14:01:08;32.30;59.20
25718;DHT22;13574;52.040;5.692;2023-06-10T14:03:37;32.20;59.00
25718;DHT22;13574;52.040;5.692;2023-06-10T14:06:05;32.30;59.00
25718;DHT22;13574;52.040;5.692;2023-06-10T14:08:31;32.90;58.90
25718;DHT22;13574;52.040;5.692;2023-06-10T14:10:56;33.00;58.40
25718;DHT22;13574;52.040;5.692;2023-06-10T14:13:22;32.90;58.60
25718;DHT22;13574;52.040;5.692;2023-06-10T14:15:48;32.80;58.60
25718;DHT22;13574;52.040;5.692;2023-06-10T14:18:14;32.50;58.60
25718;DHT22;13574;52.040;5.692;2023-06-10T14:20:42;32.90;58.50
25718;DHT22;13574;52.040;5.692;2023-06-10T14:23:11;32.90;57.80
25718;DHT22;13574;52.040;5.692;2023-06-10T14:25:36;32.80;58.20
25718;DHT22;13574;52.040;5.692;2023-06-10T14:28:02;32.90;58.00
25718;DHT22;13574;52.040;5.692;2023-06-10T14:30:28;33.10;59.10
25718;DHT22;13574;52.040;5.692;2023-06-10T14:32:53;33.20;58.30
25718;DHT22;13574;52.040;5.692;2023-06-10T14:35:22;33.00;58.30
25718;DHT22;13574;52.040;5.692;2023-06-10T14:37:48;33.10;58.00
25718;DHT22;13574;52.040;5.692;2023-06-10T14:40:13;32.90;57.50
25718;DHT22;13574;52.040;5.692;2023-06-10T14:42:39;32.50;58.20
25718;DHT22;13574;52.040;5.692;2023-06-10T14:45:05;32.70;58.00
25718;DHT22;13574;52.040;5.692;2023-06-10T14:47:31;32.50;58.30
25718;DHT22;13574;52.040;5.692;2023-06-10T14:49:57;32.40;58.40
25718;DHT22;13574;52.040;5.692;2023-06-10T14:52:22;32.30;57.70
25718;DHT22;13574;52.040;5.692;2023-06-10T14:54:48;32.50;57.60
25718;DHT22;13574;52.040;5.692;2023-06-10T14:57:14;32.60;57.70
25718;DHT22;13574;52.040;5.692;2023-06-10T14:59:40;32.90;57.40
25718;DHT22;13574;52.040;5.692;2023-06-10T15:02:05;32.90;58.00
25718;DHT22;13574;52.040;5.692;2023-06-10T15:04:31;32.90;57.80
25718;DHT22;13574;52.040;5.692;2023-06-10T15:06:57;32.90;57.70
25718;DHT22;13574;52.040;5.692;2023-06-10T15:09:23;32.90;57.70
25718;DHT22;13574;52.040;5.692;2023-06-10T15:11:49;32.70;58.00
25718;DHT22;13574;52.040;5.692;2023-06-10T15:14:14;32.60;57.50
25718;DHT22;13574;52.040;5.692;2023-06-10T15:16:40;32.70;58.40
25718;DHT22;13574;52.040;5.692;2023-06-10T15:19:06;32.80;58.60
25718;DHT22;13574;52.040;5.692;2023-06-10T15:21:33;32.80;57.80
25718;DHT22;13574;52.040;5.692;2023-06-10T15:23:59;32.80;58.30
25718;DHT22;13574;52.040;5.692;2023-06-10T15:26:25;32.90;57.70
25718;DHT22;13574;52.040;5.692;2023-06-10T15:28:50;32.90;57.30
25718;DHT22;13574;52.040;5.692;2023-06-10T15:31:16;32.70;57.10
25718;DHT22;13574;52.040;5.692;2023-06-10T15:33:42;32.80;57.70
25718;DHT22;13574;52.040;5.692;2023-06-10T15:36:07;32.90;58.00
25718;DHT22;13574;52.040;5.692;2023-06-10T15:38:33;32.80;57.50
25718;DHT22;13574;52.040;5.692;2023-06-10T15:40:59;32.90;57.50
25718;DHT22;13574;52.040;5.692;2023-06-10T15:43:25;33.00;57.20
25718;DHT22;13574;52.040;5.692;2023-06-10T15:45:53;33.10;57.70
25718;DHT22;13574;52.040;5.692;2023-06-10T15:48:23;32.70;58.30
25718;DHT22;13574;52.040;5.692;2023-06-10T15:50:49;32.70;58.80
25718;DHT22;13574;52.040;5.692;2023-06-10T15:53:18;32.70;58.40
25718;DHT22;13574;52.040;5.692;2023-06-10T15:55:43;32.80;58.40
25718;DHT22;13574;52.040;5.692;2023-06-10T15:58:09;32.60;58.60
25718;DHT22;13574;52.040;5.692;2023-06-10T16:00:35;32.30;58.30
25718;DHT22;13574;52.040;5.692;2023-06-10T16:03:00;32.20;58.70
25718;DHT22;13574;52.040;5.692;2023-06-10T16:05:26;32.10;59.30
25718;DHT22;13574;52.040;5.692;2023-06-10T16:07:52;32.30;59.00
25718;DHT22;13574;52.040;5.692;2023-06-10T16:10:18;32.20;58.70
25718;DHT22;13574;52.040;5.692;2023-06-10T16:12:43;32.40;58.80
25718;DHT22;13574;52.040;5.692;2023-06-10T16:15:09;32.50;58.70
25718;DHT22;13574;52.040;5.692;2023-06-10T16:17:38;32.30;58.80
25718;DHT22;13574;52.040;5.692;2023-06-10T16:20:19;32.20;58.70
25718;DHT22;13574;52.040;5.692;2023-06-10T16:22:47;32.50;58.50
25718;DHT22;13574;52.040;5.692;2023-06-10T16:25:13;32.60;57.90
25718;DHT22;13574;52.040;5.692;2023-06-10T16:27:39;32.70;58.10
25718;DHT22;13574;52.040;5.692;2023-06-10T16:30:05;32.50;58.30
25718;DHT22;13574;52.040;5.692;2023-06-10T16:32:31;32.70;58.50
25718;DHT22;13574;52.040;5.692;2023-06-10T16:34:57;32.60;58.10
25718;DHT22;13574;52.040;5.692;2023-06-10T16:37:25;32.50;58.80
25718;DHT22;13574;52.040;5.692;2023-06-10T16:39:50;31.90;59.80
25718;DHT22;13574;52.040;5.692;2023-06-10T16:42:16;32.00;59.90
25718;DHT22;13574;52.040;5.692;2023-06-10T16:44:42;32.10;59.60
25718;DHT22;13574;52.040;5.692;2023-06-10T16:47:07;31.90;59.90
25718;DHT22;13574;52.040;5.692;2023-06-10T16:49:33;31.90;59.80
25718;DHT22;13574;52.040;5.692;2023-06-10T16:52:01;32.10;59.40
25718;DHT22;13574;52.040;5.692;2023-06-10T16:54:29;32.20;59.40
25718;DHT22;13574;52.040;5.692;2023-06-10T16:56:55;32.60;59.00
25718;DHT22;13574;52.040;5.692;2023-06-10T16:59:30;32.50;59.20
25718;DHT22;13574;52.040;5.692;2023-06-10T17:01:56;32.50;59.10
25718;DHT22;13574;52.040;5.692;2023-06-10T17:04:22;32.30;59.40
25718;DHT22;13574;52.040;5.692;2023-06-10T17:06:47;32.20;59.80
25718;DHT22;13574;52.040;5.692;2023-06-10T17:09:14;32.00;59.50
25718;DHT22;13574;52.040;5.692;2023-06-10T17:11:41;32.10;59.80
25718;DHT22;13574;52.040;5.692;2023-06-10T17:14:07;32.40;60.00
25718;DHT22;13574;52.040;5.692;2023-06-10T17:16:36;32.50;60.00